sensor_id;sensor_type;location;lat;lon;timestamp;pressure;altitude;pressure_sealevel;temperature;humidity
57600;BME280;43426;43.594;24.334;2023-07-08T00:00:55;101078.94;;;21.72;80.13
57600;BME280;43426;43.594;24.334;2023-07-08T00:03:23;101085.25;;;21.60;81.06
57600;BME280;43426;43.594;24.334;2023-07-08T00:05:55;101112.75;;;21.84;80.41
57600;BME280;43426;43.594;24.334;2023-07-08T00:08:21;101078.56;;;21.56;80.38
57600;BME280;43426;43.594;24.334;2023-07-08T00:10:51;101088.88;;;21.73;80.03
57600;BME280;43426;43.594;24.334;2023-07-08T00:13:16;101097.59;;;21.82;79.89
57600;BME280;43426;43.594;24.334;2023-07-08T00:15:46;101098.16;;;21.72;80.11
57600;BME280;43426;43.594;24.334;2023-07-08T00:18:13;101101.16;;;21.70;80.43
57600;BME280;43426;43.594;24.334;2023-07-08T00:20:44;101074.16;;;21.55;80.66
57600;BME280;43426;43.594;24.334;2023-07-08T00:23:10;101110.34;;;21.76;80.36
57600;BME280;43426;43.594;24.334;2023-07-08T00:25:36;101084.44;;;21.60;80.58
57600;BME280;43426;43.594;24.334;2023-07-08T00:30:53;101103.66;;;21.72;80.21
57600;BME280;43426;43.594;24.334;2023-07-08T00:33:20;101098.66;;;21.69;80.55
57600;BME280;43426;43.594;24.334;2023-07-08T00:35:45;101065.31;;;21.53;80.38
57600;BME280;43426;43.594;24.334;2023-07-08T00:38:23;101065.63;;;21.45;80.80
57600;BME280;43426;43.594;24.334;2023-07-08T00:41:04;101084.78;;;21.64;80.97
57600;BME280;43426;43.594;24.334;2023-07-08T00:43:39;101081.91;;;21.58;80.73
57600;BME280;43426;43.594;24.334;2023-07-08T00:48:41;101064.78;;;21.44;80.71
57600;BME280;43426;43.594;24.334;2023-07-08T00:51:10;101081.72;;;21.41;81.35
57600;BME280;43426;43.594;24.334;2023-07-08T00:53:37;101082.69;;;21.35;82.21
57600;BME280;43426;43.594;24.334;2023-07-08T00:56:12;101050.03;;;21.15;82.09
57600;BME280;43426;43.594;24.334;2023-07-08T00:58:46;101066.78;;;21.25;82.63
57600;BME280;43426;43.594;24.334;2023-07-08T01:01:13;101064.63;;;21.27;82.22
57600;BME280;43426;43.594;24.334;2023-07-08T01:04:04;101087.28;;;21.53;81.27
57600;BME280;43426;43.594;24.334;2023-07-08T01:06:34;101092.72;;;21.41;81.52
57600;BME280;43426;43.594;24.334;2023-07-08T01:09:07;101067.72;;;21.19;82.04
57600;BME280;43426;43.594;24.334;2023-07-08T01:11:37;101099.72;;;21.25;82.69
57600;BME280;43426;43.594;24.334;2023-07-08T01:14:05;101114.97;;;21.21;83.59
57600;BME280;43426;43.594;24.334;2023-07-08T01:16:35;101090.31;;;21.03;83.77
57600;BME280;43426;43.594;24.334;2023-07-08T01:19:02;101120.38;;;20.98;85.30
57600;BME280;43426;43.594;24.334;2023-07-08T01:24:14;101087.94;;;20.76;86.51
57600;BME280;43426;43.594;24.334;2023-07-08T01:26:46;101099.38;;;20.73;88.76
57600;BME280;43426;43.594;24.334;2023-07-08T01:29:12;101078.63;;;20.58;88.38
57600;BME280;43426;43.594;24.334;2023-07-08T01:31:37;101091.00;;;20.68;88.44
57600;BME280;43426;43.594;24.334;2023-07-08T01:34:08;101077.56;;;20.59;88.54
57600;BME280;43426;43.594;24.334;2023-07-08T01:36:52;101097.44;;;20.55;89.58
57600;BME280;43426;43.594;24.334;2023-07-08T01:39:23;101084.13;;;20.40;89.26
57600;BME280;43426;43.594;24.334;2023-07-08T01:41:49;101108.84;;;20.52;89.86
57600;BME280;43426;43.594;24.334;2023-07-08T01:44:34;101077.94;;;20.26;90.18
57600;BME280;43426;43.594;24.334;2023-07-08T01:47:14;101089.28;;;20.30;90.23
57600;BME280;43426;43.594;24.334;2023-07-08T01:49:46;101090.34;;;20.29;90.64
57600;BME280;43426;43.594;24.334;2023-07-08T01:52:15;101097.59;;;20.41;90.03
57600;BME280;43426;43.594;24.334;2023-07-08T01:54:44;101092.53;;;20.20;90.99
57600;BME280;43426;43.594;24.334;2023-07-08T01:57:09;101091.47;;;20.21;91.51
57600;BME280;43426;43.594;24.334;2023-07-08T01:59:38;101094.28;;;20.14;92.04
57600;BME280;43426;43.594;24.334;2023-07-08T02:02:03;101057.22;;;19.93;92.15
57600;BME280;43426;43.594;24.334;2023-07-08T02:04:36;101066.41;;;19.80;93.13
57600;BME280;43426;43.594;24.334;2023-07-08T02:07:05;101071.88;;;19.80;93.93
57600;BME280;43426;43.594;24.334;2023-07-08T02:09:33;101071.19;;;19.85;93.96
57600;BME280;43426;43.594;24.334;2023-07-08T02:12:04;101084.41;;;19.88;94.35
57600;BME280;43426;43.594;24.334;2023-07-08T02:14:34;101076.97;;;19.70;94.91
57600;BME280;43426;43.594;24.334;2023-07-08T02:17:04;101055.41;;;19.55;94.42
57600;BME280;43426;43.594;24.334;2023-07-08T02:19:32;101086.09;;;19.89;93.76
57600;BME280;43426;43.594;24.334;2023-07-08T02:22:00;101062.22;;;19.71;93.84
57600;BME280;43426;43.594;24.334;2023-07-08T02:24:28;101068.94;;;19.75;93.44
57600;BME280;43426;43.594;24.334;2023-07-08T02:26:56;101073.63;;;19.68;94.23
57600;BME280;43426;43.594;24.334;2023-07-08T02:29:25;101102.75;;;19.87;93.95
57600;BME280;43426;43.594;24.334;2023-07-08T02:31:58;101082.63;;;19.75;93.73
57600;BME280;43426;43.594;24.334;2023-07-08T02:34:28;101086.63;;;19.72;93.65
57600;BME280;43426;43.594;24.334;2023-07-08T02:36:54;101118.22;;;19.75;94.48
57600;BME280;43426;43.594;24.334;2023-07-08T02:39:21;101103.13;;;19.66;94.33
57600;BME280;43426;43.594;24.334;2023-07-08T02:41:47;101120.78;;;19.70;94.75
57600;BME280;43426;43.594;24.334;2023-07-08T02:44:12;101120.94;;;19.75;94.50
57600;BME280;43426;43.594;24.334;2023-07-08T02:46:40;101102.78;;;19.55;94.46
57600;BME280;43426;43.594;24.334;2023-07-08T02:49:06;101088.91;;;19.50;94.75
57600;BME280;43426;43.594;24.334;2023-07-08T02:51:32;101132.13;;;19.73;95.90
57600;BME280;43426;43.594;24.334;2023-07-08T02:54:02;101121.91;;;19.62;95.85
57600;BME280;43426;43.594;24.334;2023-07-08T02:56:35;101129.72;;;19.59;96.06
57600;BME280;43426;43.594;24.334;2023-07-08T02:59:00;101117.75;;;19.53;95.68
57600;BME280;43426;43.594;24.334;2023-07-08T03:01:25;101129.16;;;19.50;96.59
57600;BME280;43426;43.594;24.334;2023-07-08T03:03:51;101098.28;;;19.36;96.76
57600;BME280;43426;43.594;24.334;2023-07-08T03:06:22;101113.63;;;19.37;96.93
57600;BME280;43426;43.594;24.334;2023-07-08T03:08:49;101102.78;;;19.23;97.61
57600;BME280;43426;43.594;24.334;2023-07-08T03:11:17;101097.19;;;19.05;98.37
57600;BME280;43426;43.594;24.334;2023-07-08T03:13:42;101126.63;;;19.16;99.57
57600;BME280;43426;43.594;24.334;2023-07-08T03:16:12;101110.53;;;18.95;99.79
57600;BME280;43426;43.594;24.334;2023-07-08T03:18:41;101124.28;;;19.13;99.63
57600;BME280;43426;43.594;24.334;2023-07-08T03:21:15;101137.13;;;19.19;99.78
57600;BME280;43426;43.594;24.334;2023-07-08T03:23:41;101135.22;;;19.20;99.76
57600;BME280;43426;43.594;24.334;2023-07-08T03:26:07;101134.56;;;19.25;99.34
57600;BME280;43426;43.594;24.334;2023-07-08T03:28:35;101111.06;;;19.10;99.28
57600;BME280;43426;43.594;24.334;2023-07-08T03:31:01;101115.88;;;19.15;98.81
57600;BME280;43426;43.594;24.334;2023-07-08T03:33:31;101112.50;;;19.19;98.48
57600;BME280;43426;43.594;24.334;2023-07-08T03:36:01;101134.47;;;19.38;98.12
57600;BME280;43426;43.594;24.334;2023-07-08T03:38:27;101152.91;;;19.49;98.28
57600;BME280;43426;43.594;24.334;2023-07-08T03:40:52;101145.38;;;19.45;98.15
57600;BME280;43426;43.594;24.334;2023-07-08T03:43:20;101154.41;;;19.45;98.37
57600;BME280;43426;43.594;24.334;2023-07-08T03:45:48;101159.53;;;19.35;98.96
57600;BME280;43426;43.594;24.334;2023-07-08T03:48:18;101143.63;;;19.18;99.67
57600;BME280;43426;43.594;24.334;2023-07-08T03:50:46;101138.34;;;19.23;99.26
57600;BME280;43426;43.594;24.334;2023-07-08T03:53:11;101129.75;;;19.20;99.30
57600;BME280;43426;43.594;24.334;2023-07-08T03:55:42;101118.41;;;19.16;98.29
57600;BME280;43426;43.594;24.334;2023-07-08T03:58:10;101143.00;;;19.55;96.84
57600;BME280;43426;43.594;24.334;2023-07-08T04:00:40;101127.00;;;19.20;99.04
57600;BME280;43426;43.594;24.334;2023-07-08T04:03:10;101157.25;;;19.32;99.21
57600;BME280;43426;43.594;24.334;2023-07-08T04:05:44;101134.44;;;19.45;97.81
57600;BME280;43426;43.594;24.334;2023-07-08T04:08:09;101150.78;;;19.58;97.71
57600;BME280;43426;43.594;24.334;2023-07-08T04:10:37;101136.22;;;19.57;96.71
57600;BME280;43426;43.594;24.334;2023-07-08T04:13:05;101154.03;;;19.80;96.27
57600;BME280;43426;43.594;24.334;2023-07-08T04:15:31;101125.78;;;19.48;97.42
57600;BME280;43426;43.594;24.334;2023-07-08T04:17:56;101135.75;;;19.67;96.66
57600;BME280;43426;43.594;24.334;2023-07-08T04:20:25;101154.06;;;19.99;95.12
57600;BME280;43426;43.594;24.334;2023-07-08T04:22:53;101147.28;;;20.27;93.57
57600;BME280;43426;43.594;24.334;2023-07-08T04:25:23;101131.31;;;20.23;93.09
57600;BME280;43426;43.594;24.334;2023-07-08T04:27:52;101139.63;;;20.35;93.08
57600;BME280;43426;43.594;24.334;2023-07-08T04:30:23;101162.06;;;20.69;91.98
57600;BME280;43426;43.594;24.334;2023-07-08T04:32:52;101133.63;;;21.01;89.00
57600;BME280;43426;43.594;24.334;2023-07-08T04:35:20;101148.81;;;21.15;88.65
57600;BME280;43426;43.594;24.334;2023-07-08T04:37:45;101138.41;;;21.36;87.82
57600;BME280;43426;43.594;24.334;2023-07-08T04:40:20;101172.38;;;21.84;86.71
57600;BME280;43426;43.594;24.334;2023-07-08T04:42:49;101150.53;;;22.01;85.43
57600;BME280;43426;43.594;24.334;2023-07-08T04:45:19;101171.34;;;22.44;83.21
57600;BME280;43426;43.594;24.334;2023-07-08T04:47:45;101166.06;;;22.66;80.35
57600;BME280;43426;43.594;24.334;2023-07-08T04:50:17;101147.06;;;22.65;78.02
57600;BME280;43426;43.594;24.334;2023-07-08T04:52:45;101153.75;;;22.81;76.61
57600;BME280;43426;43.594;24.334;2023-07-08T04:55:15;101129.13;;;22.74;75.68
57600;BME280;43426;43.594;24.334;2023-07-08T04:57:42;101143.28;;;22.94;75.43
57600;BME280;43426;43.594;24.334;2023-07-08T05:00:15;101146.72;;;23.13;74.25
57600;BME280;43426;43.594;24.334;2023-07-08T05:02:47;101159.25;;;23.21;74.81
57600;BME280;43426;43.594;24.334;2023-07-08T05:05:21;101119.31;;;23.07;73.74
57600;BME280;43426;43.594;24.334;2023-07-08T05:07:49;101131.59;;;23.28;73.55
57600;BME280;43426;43.594;24.334;2023-07-08T05:10:18;101135.13;;;23.40;72.38
57600;BME280;43426;43.594;24.334;2023-07-08T05:12:47;101124.91;;;23.41;71.84
57600;BME280;43426;43.594;24.334;2023-07-08T05:15:18;101149.81;;;23.46;71.39
57600;BME280;43426;43.594;24.334;2023-07-08T05:17:46;101136.63;;;23.48;71.72
57600;BME280;43426;43.594;24.334;2023-07-08T05:20:14;101122.53;;;23.61;72.00
57600;BME280;43426;43.594;24.334;2023-07-08T05:22:53;101142.03;;;23.89;71.66
57600;BME280;43426;43.594;24.334;2023-07-08T05:25:22;101138.53;;;23.93;69.64
57600;BME280;43426;43.594;24.334;2023-07-08T05:27:52;101140.09;;;24.06;68.85
57600;BME280;43426;43.594;24.334;2023-07-08T05:30:23;101153.72;;;24.13;69.79
57600;BME280;43426;43.594;24.334;2023-07-08T05:32:53;101135.75;;;24.27;67.53
57600;BME280;43426;43.594;24.334;2023-07-08T05:35:18;101127.03;;;24.36;67.34
57600;BME280;43426;43.594;24.334;2023-07-08T05:37:44;101129.63;;;24.25;67.86
57600;BME280;43426;43.594;24.334;2023-07-08T05:40:12;101138.13;;;24.41;67.32
57600;BME280;43426;43.594;24.334;2023-07-08T05:42:37;101128.69;;;24.37;66.92
57600;BME280;43426;43.594;24.334;2023-07-08T05:45:07;101129.31;;;24.22;67.13
57600;BME280;43426;43.594;24.334;2023-07-08T05:47:38;101143.34;;;24.20;68.25
57600;BME280;43426;43.594;24.334;2023-07-08T05:50:04;101149.66;;;24.38;67.44
57600;BME280;43426;43.594;24.334;2023-07-08T05:52:29;101143.19;;;24.49;67.15
57600;BME280;43426;43.594;24.334;2023-07-08T05:54:59;101162.31;;;24.73;66.12
57600;BME280;43426;43.594;24.334;2023-07-08T05:57:25;101153.09;;;24.84;66.00
57600;BME280;43426;43.594;24.334;2023-07-08T05:59:53;101172.91;;;25.03;63.99
57600;BME280;43426;43.594;24.334;2023-07-08T06:02:18;101178.56;;;24.91;64.74
57600;BME280;43426;43.594;24.334;2023-07-08T06:04:46;101155.44;;;24.97;64.30
57600;BME280;43426;43.594;24.334;2023-07-08T06:07:17;101172.44;;;25.11;64.50
57600;BME280;43426;43.594;24.334;2023-07-08T06:09:46;101169.63;;;25.28;64.88
57600;BME280;43426;43.594;24.334;2023-07-08T06:12:14;101170.69;;;25.49;62.90
57600;BME280;43426;43.594;24.334;2023-07-08T06:14:42;101167.53;;;25.36;63.13
57600;BME280;43426;43.594;24.334;2023-07-08T06:17:08;101173.09;;;25.41;63.85
57600;BME280;43426;43.594;24.334;2023-07-08T06:19:36;101186.91;;;25.68;64.29
57600;BME280;43426;43.594;24.334;2023-07-08T06:22:04;101165.16;;;25.77;63.19
57600;BME280;43426;43.594;24.334;2023-07-08T06:24:35;101174.78;;;26.02;62.91
57600;BME280;43426;43.594;24.334;2023-07-08T06:27:04;101179.31;;;26.13;61.62
57600;BME280;43426;43.594;24.334;2023-07-08T06:29:36;101162.41;;;25.77;61.47
57600;BME280;43426;43.594;24.334;2023-07-08T06:32:05;101188.84;;;25.67;61.90
57600;BME280;43426;43.594;24.334;2023-07-08T06:34:33;101183.94;;;25.47;63.80
57600;BME280;43426;43.594;24.334;2023-07-08T06:37:00;101200.91;;;25.61;64.67
57600;BME280;43426;43.594;24.334;2023-07-08T06:39:26;101199.97;;;25.78;63.53
57600;BME280;43426;43.594;24.334;2023-07-08T06:41:54;101194.97;;;26.02;64.49
57600;BME280;43426;43.594;24.334;2023-07-08T06:44:24;101168.59;;;25.89;62.23
57600;BME280;43426;43.594;24.334;2023-07-08T06:46:51;101209.16;;;26.11;62.72
57600;BME280;43426;43.594;24.334;2023-07-08T06:49:18;101208.16;;;26.27;62.14
57600;BME280;43426;43.594;24.334;2023-07-08T06:51:48;101210.66;;;26.29;62.89
57600;BME280;43426;43.594;24.334;2023-07-08T06:54:14;101219.88;;;26.40;61.89
57600;BME280;43426;43.594;24.334;2023-07-08T06:56:40;101226.97;;;26.25;63.47
57600;BME280;43426;43.594;24.334;2023-07-08T06:59:11;101229.75;;;26.25;63.37
57600;BME280;43426;43.594;24.334;2023-07-08T07:01:38;101222.31;;;26.31;63.05
57600;BME280;43426;43.594;24.334;2023-07-08T07:04:04;101218.91;;;26.24;62.86
57600;BME280;43426;43.594;24.334;2023-07-08T07:06:31;101232.81;;;26.29;63.14
57600;BME280;43426;43.594;24.334;2023-07-08T07:08:59;101207.91;;;26.29;62.10
57600;BME280;43426;43.594;24.334;2023-07-08T07:11:24;101215.06;;;25.97;63.76
57600;BME280;43426;43.594;24.334;2023-07-08T07:13:50;101212.66;;;25.74;64.40
57600;BME280;43426;43.594;24.334;2023-07-08T07:16:18;101207.03;;;25.63;65.14
57600;BME280;43426;43.594;24.334;2023-07-08T07:18:44;101229.50;;;25.72;64.98
57600;BME280;43426;43.594;24.334;2023-07-08T07:21:17;101251.41;;;25.79;65.49
57600;BME280;43426;43.594;24.334;2023-07-08T07:23:43;101210.34;;;25.65;65.22
57600;BME280;43426;43.594;24.334;2023-07-08T07:26:14;101228.69;;;25.72;64.72
57600;BME280;43426;43.594;24.334;2023-07-08T07:28:44;101221.59;;;25.54;65.01
57600;BME280;43426;43.594;24.334;2023-07-08T07:31:20;101233.47;;;25.81;65.48
57600;BME280;43426;43.594;24.334;2023-07-08T07:34:01;101228.34;;;25.95;65.24
57600;BME280;43426;43.594;24.334;2023-07-08T07:36:28;101253.25;;;26.28;63.96
57600;BME280;43426;43.594;24.334;2023-07-08T07:38:59;101234.34;;;26.14;64.53
57600;BME280;43426;43.594;24.334;2023-07-08T07:41:27;101256.41;;;26.42;62.91
57600;BME280;43426;43.594;24.334;2023-07-08T07:43:55;101256.72;;;26.45;63.25
57600;BME280;43426;43.594;24.334;2023-07-08T07:46:23;101253.78;;;26.62;62.66
57600;BME280;43426;43.594;24.334;2023-07-08T07:48:51;101245.59;;;26.73;60.81
57600;BME280;43426;43.594;24.334;2023-07-08T07:51:19;101259.38;;;26.67;62.39
57600;BME280;43426;43.594;24.334;2023-07-08T07:53:47;101239.94;;;26.57;61.90
57600;BME280;43426;43.594;24.334;2023-07-08T07:56:12;101267.06;;;26.60;61.69
57600;BME280;43426;43.594;24.334;2023-07-08T07:58:40;101242.34;;;26.48;63.76
57600;BME280;43426;43.594;24.334;2023-07-08T08:01:06;101238.38;;;26.72;60.99
57600;BME280;43426;43.594;24.334;2023-07-08T08:03:34;101243.53;;;27.00;60.38
57600;BME280;43426;43.594;24.334;2023-07-08T08:06:06;101263.13;;;27.47;60.17
57600;BME280;43426;43.594;24.334;2023-07-08T08:08:31;101251.81;;;27.59;59.34
57600;BME280;43426;43.594;24.334;2023-07-08T08:10:59;101263.53;;;27.92;59.33
57600;BME280;43426;43.594;24.334;2023-07-08T08:13:32;101255.44;;;27.75;59.13
57600;BME280;43426;43.594;24.334;2023-07-08T08:16:02;101270.44;;;27.74;59.18
57600;BME280;43426;43.594;24.334;2023-07-08T08:18:28;101265.47;;;27.86;60.75
57600;BME280;43426;43.594;24.334;2023-07-08T08:20:56;101236.53;;;27.56;58.69
57600;BME280;43426;43.594;24.334;2023-07-08T08:23:21;101254.00;;;27.46;58.78
57600;BME280;43426;43.594;24.334;2023-07-08T08:25:52;101227.53;;;27.13;58.51
57600;BME280;43426;43.594;24.334;2023-07-08T08:28:22;101246.00;;;26.92;60.49
57600;BME280;43426;43.594;24.334;2023-07-08T08:30:50;101241.81;;;26.94;59.63
57600;BME280;43426;43.594;24.334;2023-07-08T08:33:19;101257.41;;;27.06;60.95
57600;BME280;43426;43.594;24.334;2023-07-08T08:35:45;101251.88;;;27.06;59.24
57600;BME280;43426;43.594;24.334;2023-07-08T08:38:11;101248.06;;;27.27;59.45
57600;BME280;43426;43.594;24.334;2023-07-08T08:40:40;101245.88;;;27.29;59.13
57600;BME280;43426;43.594;24.334;2023-07-08T08:43:12;101241.22;;;27.40;59.86
57600;BME280;43426;43.594;24.334;2023-07-08T08:48:53;101241.91;;;28.30;57.27
57600;BME280;43426;43.594;24.334;2023-07-08T08:51:25;101223.03;;;28.01;57.89
57600;BME280;43426;43.594;24.334;2023-07-08T08:53:56;101217.22;;;28.13;57.08
57600;BME280;43426;43.594;24.334;2023-07-08T08:56:29;101237.75;;;28.37;58.10
57600;BME280;43426;43.594;24.334;2023-07-08T08:59:07;101213.56;;;28.69;57.76
57600;BME280;43426;43.594;24.334;2023-07-08T09:01:38;101228.31;;;29.35;54.23
57600;BME280;43426;43.594;24.334;2023-07-08T09:04:12;101246.50;;;29.01;53.50
57600;BME280;43426;43.594;24.334;2023-07-08T09:06:42;101247.63;;;29.05;54.74
57600;BME280;43426;43.594;24.334;2023-07-08T09:09:41;101239.16;;;29.36;54.70
57600;BME280;43426;43.594;24.334;2023-07-08T09:12:25;101233.75;;;30.00;53.81
57600;BME280;43426;43.594;24.334;2023-07-08T09:14:52;101220.75;;;30.25;51.14
57600;BME280;43426;43.594;24.334;2023-07-08T09:20:27;101243.06;;;30.54;51.75
57600;BME280;43426;43.594;24.334;2023-07-08T09:25:35;101211.34;;;29.42;51.93
57600;BME280;43426;43.594;24.334;2023-07-08T09:28:07;101248.16;;;29.08;53.58
57600;BME280;43426;43.594;24.334;2023-07-08T09:30:33;101233.28;;;28.52;54.70
57600;BME280;43426;43.594;24.334;2023-07-08T09:33:03;101238.28;;;28.19;55.59
57600;BME280;43426;43.594;24.334;2023-07-08T09:35:43;101239.38;;;27.92;56.46
57600;BME280;43426;43.594;24.334;2023-07-08T09:38:16;101245.69;;;27.57;60.18
57600;BME280;43426;43.594;24.334;2023-07-08T09:40:50;101275.94;;;27.00;68.42
57600;BME280;43426;43.594;24.334;2023-07-08T09:43:34;101253.34;;;26.06;75.78
57600;BME280;43426;43.594;24.334;2023-07-08T09:46:03;101281.75;;;25.29;81.34
57600;BME280;43426;43.594;24.334;2023-07-08T09:48:35;101270.06;;;24.61;81.98
57600;BME280;43426;43.594;24.334;2023-07-08T09:51:02;101281.88;;;24.10;84.42
57600;BME280;43426;43.594;24.334;2023-07-08T09:53:33;101300.94;;;23.42;86.53
57600;BME280;43426;43.594;24.334;2023-07-08T09:56:04;101273.94;;;23.04;90.01
57600;BME280;43426;43.594;24.334;2023-07-08T09:58:37;101273.38;;;22.78;93.25
57600;BME280;43426;43.594;24.334;2023-07-08T10:01:28;101282.91;;;22.64;95.42
57600;BME280;43426;43.594;24.334;2023-07-08T10:04:01;101295.59;;;22.65;96.17
57600;BME280;43426;43.594;24.334;2023-07-08T10:06:32;101296.91;;;22.62;98.61
57600;BME280;43426;43.594;24.334;2023-07-08T10:09:09;101276.97;;;22.67;97.85
57600;BME280;43426;43.594;24.334;2023-07-08T10:11:43;101281.28;;;22.63;97.61
57600;BME280;43426;43.594;24.334;2023-07-08T10:14:39;101271.19;;;22.56;97.92
57600;BME280;43426;43.594;24.334;2023-07-08T10:17:17;101296.22;;;22.67;95.56
57600;BME280;43426;43.594;24.334;2023-07-08T10:19:47;101291.78;;;22.77;97.44
57600;BME280;43426;43.594;24.334;2023-07-08T10:27:54;101258.53;;;22.55;93.24
57600;BME280;43426;43.594;24.334;2023-07-08T10:30:32;101254.69;;;22.56;93.69
57600;BME280;43426;43.594;24.334;2023-07-08T10:36:19;101249.53;;;23.19;96.55
57600;BME280;43426;43.594;24.334;2023-07-08T10:41:28;101267.38;;;23.86;95.86
57600;BME280;43426;43.594;24.334;2023-07-08T10:44:08;101252.81;;;24.20;96.19
57600;BME280;43426;43.594;24.334;2023-07-08T10:49:44;101267.09;;;24.85;92.57
57600;BME280;43426;43.594;24.334;2023-07-08T10:52:35;101262.00;;;25.38;89.97
57600;BME280;43426;43.594;24.334;2023-07-08T10:55:36;101261.84;;;25.72;88.56
57600;BME280;43426;43.594;24.334;2023-07-08T11:06:44;101275.22;;;25.80;80.38
57600;BME280;43426;43.594;24.334;2023-07-08T11:09:15;101212.06;;;25.22;79.06
57600;BME280;43426;43.594;24.334;2023-07-08T11:11:51;101293.06;;;25.06;76.90
57600;BME280;43426;43.594;24.334;2023-07-08T11:14:46;101288.91;;;24.35;80.31
57600;BME280;43426;43.594;24.334;2023-07-08T11:17:42;101288.47;;;23.80;84.66
57600;BME280;43426;43.594;24.334;2023-07-08T11:20:28;101243.66;;;23.16;86.98
57600;BME280;43426;43.594;24.334;2023-07-08T11:23:04;101293.59;;;23.19;90.05
57600;BME280;43426;43.594;24.334;2023-07-08T11:25:40;101289.25;;;23.00;91.86
57600;BME280;43426;43.594;24.334;2023-07-08T11:28:15;101282.69;;;22.89;94.07
57600;BME280;43426;43.594;24.334;2023-07-08T11:30:42;101254.59;;;22.75;92.11
57600;BME280;43426;43.594;24.334;2023-07-08T11:33:15;101253.75;;;22.74;93.70
57600;BME280;43426;43.594;24.334;2023-07-08T11:35:56;101269.91;;;22.71;94.43
57600;BME280;43426;43.594;24.334;2023-07-08T11:38:24;101270.50;;;22.49;95.31
57600;BME280;43426;43.594;24.334;2023-07-08T11:41:05;101253.03;;;22.43;95.64
57600;BME280;43426;43.594;24.334;2023-07-08T11:43:52;101238.81;;;22.58;94.68
57600;BME280;43426;43.594;24.334;2023-07-08T11:46:21;101231.38;;;22.47;94.42
57600;BME280;43426;43.594;24.334;2023-07-08T11:48:52;101273.84;;;22.87;96.40
57600;BME280;43426;43.594;24.334;2023-07-08T11:51:27;101278.59;;;23.03;94.86
57600;BME280;43426;43.594;24.334;2023-07-08T11:54:27;101254.19;;;23.07;95.65
57600;BME280;43426;43.594;24.334;2023-07-08T11:59:30;101246.59;;;23.38;95.57
57600;BME280;43426;43.594;24.334;2023-07-08T12:02:14;101275.50;;;23.64;95.79
57600;BME280;43426;43.594;24.334;2023-07-08T12:05:02;101263.78;;;23.86;95.50
57600;BME280;43426;43.594;24.334;2023-07-08T12:07:40;101281.88;;;24.10;92.09
57600;BME280;43426;43.594;24.334;2023-07-08T12:10:28;101289.94;;;24.29;88.66
57600;BME280;43426;43.594;24.334;2023-07-08T12:12:54;101242.44;;;24.10;89.87
57600;BME280;43426;43.594;24.334;2023-07-08T12:15:37;101277.41;;;24.38;88.32
57600;BME280;43426;43.594;24.334;2023-07-08T12:18:13;101275.53;;;24.27;85.95
57600;BME280;43426;43.594;24.334;2023-07-08T12:20:44;101292.59;;;24.41;86.76
57600;BME280;43426;43.594;24.334;2023-07-08T12:23:18;101280.06;;;24.50;87.04
57600;BME280;43426;43.594;24.334;2023-07-08T12:25:44;101256.31;;;24.32;86.87
57600;BME280;43426;43.594;24.334;2023-07-08T12:28:13;101270.97;;;24.50;87.14
57600;BME280;43426;43.594;24.334;2023-07-08T12:30:41;101282.09;;;24.72;88.53
57600;BME280;43426;43.594;24.334;2023-07-08T12:35:50;101269.19;;;24.60;86.80
57600;BME280;43426;43.594;24.334;2023-07-08T12:38:42;101236.03;;;24.38;85.85
57600;BME280;43426;43.594;24.334;2023-07-08T12:41:21;101231.47;;;24.49;86.11
57600;BME280;43426;43.594;24.334;2023-07-08T12:43:50;101269.50;;;24.81;87.65
57600;BME280;43426;43.594;24.334;2023-07-08T12:46:20;101261.91;;;24.88;87.20
57600;BME280;43426;43.594;24.334;2023-07-08T12:48:50;101271.94;;;25.16;86.01
57600;BME280;43426;43.594;24.334;2023-07-08T12:51:24;101269.72;;;25.36;82.37
57600;BME280;43426;43.594;24.334;2023-07-08T12:53:51;101257.00;;;25.35;82.96
57600;BME280;43426;43.594;24.334;2023-07-08T12:56:23;101257.97;;;25.45;87.05
57600;BME280;43426;43.594;24.334;2023-07-08T12:58:57;101264.16;;;25.80;82.17
57600;BME280;43426;43.594;24.334;2023-07-08T13:01:25;101235.44;;;25.86;78.63
57600;BME280;43426;43.594;24.334;2023-07-08T13:03:56;101238.47;;;26.12;79.86
57600;BME280;43426;43.594;24.334;2023-07-08T13:06:28;101209.31;;;26.31;81.95
57600;BME280;43426;43.594;24.334;2023-07-08T13:09:00;101216.97;;;26.62;73.92
57600;BME280;43426;43.594;24.334;2023-07-08T13:11:27;101219.44;;;27.06;70.04
57600;BME280;43426;43.594;24.334;2023-07-08T13:14:04;101221.06;;;26.97;70.27
57600;BME280;43426;43.594;24.334;2023-07-08T13:16:33;101232.94;;;26.87;73.95
57600;BME280;43426;43.594;24.334;2023-07-08T13:19:04;101228.63;;;27.12;73.46
57600;BME280;43426;43.594;24.334;2023-07-08T13:21:32;101210.69;;;27.35;72.04
57600;BME280;43426;43.594;24.334;2023-07-08T13:24:07;101207.78;;;28.03;70.86
57600;BME280;43426;43.594;24.334;2023-07-08T13:26:35;101215.50;;;28.63;70.72
57600;BME280;43426;43.594;24.334;2023-07-08T13:29:13;101227.00;;;29.27;67.23
57600;BME280;43426;43.594;24.334;2023-07-08T13:31:43;101215.91;;;29.67;64.49
57600;BME280;43426;43.594;24.334;2023-07-08T13:34:17;101224.75;;;29.74;66.08
57600;BME280;43426;43.594;24.334;2023-07-08T13:36:49;101208.06;;;29.74;66.36
57600;BME280;43426;43.594;24.334;2023-07-08T13:39:20;101220.53;;;30.51;58.84
57600;BME280;43426;43.594;24.334;2023-07-08T13:41:47;101217.13;;;31.07;57.25
57600;BME280;43426;43.594;24.334;2023-07-08T13:44:19;101226.38;;;31.03;55.66